Upernavik, Greenland
Current Conditions -  °F | °C
As of 11:50 AM on Tuesday 27 Jan 2015 (Local Time) from BGJN Reporting Station
Light Snow Light Snow  
Wind Chill: -26°   Ceiling: 600
Heat Index: -2°   Visibility: 0.93mi
Dew Point: -8°   Wind: 23mph
Humidity: 78%   Direction: 150°SSE
Pressure: 29.44"   Gusts: NA
Location:  72.79°N, 56.15°W
Report Text: BGJN 271350Z 15020KT 1500 -SN BKN006 OVC017 M19/M22 Q0997
Loading
Personal Weather Stations






























Interactive Weather Map New forecast layout! Learn more

10-Day Weather Forecast

Advertisements
Track Severe Weather on mobile